createdAt,value
2019-03-19T00:01:27.757Z,8.80
2019-03-19T00:06:31.280Z,7.13
2019-03-19T00:11:34.815Z,9.33
2019-03-19T00:16:38.101Z,6.40
2019-03-19T00:21:41.386Z,7.60
2019-03-19T00:26:44.915Z,7.97
2019-03-19T00:31:48.447Z,4.93
2019-03-19T00:36:51.990Z,7.73
2019-03-19T00:41:55.280Z,11.93
2019-03-19T00:46:58.817Z,7.50
2019-03-19T00:52:02.121Z,6.97
2019-03-19T00:57:05.649Z,9.60
2019-03-19T01:02:08.946Z,9.23
2019-03-19T01:07:12.464Z,8.20
2019-03-19T01:12:16.004Z,12.77
2019-03-19T01:17:19.318Z,10.20
2019-03-19T01:22:22.863Z,9.67
2019-03-19T01:27:26.257Z,7.47
2019-03-19T01:32:29.571Z,10.70
2019-03-19T01:37:33.089Z,8.17
2019-03-19T01:42:36.396Z,8.43
2019-03-19T01:47:39.927Z,7.73
2019-03-19T01:52:43.557Z,7.50
2019-03-19T01:57:47.111Z,9.57
2019-03-19T02:02:50.643Z,8.60
2019-03-19T02:07:53.954Z,8.97
2019-03-19T02:12:57.231Z,9.70
2019-03-19T02:18:00.546Z,10.77
2019-03-19T02:23:04.776Z,5.23
2019-03-19T02:28:08.233Z,10.43
2019-03-19T02:33:11.546Z,14.67
2019-03-19T02:38:14.857Z,10.57
2019-03-19T02:43:18.148Z,7.77
2019-03-19T02:48:21.676Z,9.53
2019-03-19T02:53:25.219Z,10.80
2019-03-19T02:58:28.507Z,11.17
2019-03-19T03:03:31.797Z,7.97
2019-03-19T03:08:35.083Z,8.57
2019-03-19T03:13:38.372Z,13.30
2019-03-19T03:18:41.905Z,9.73
2019-03-19T03:23:45.439Z,11.17
2019-03-19T03:28:49.000Z,11.30
2019-03-19T03:33:52.311Z,17.83
2019-03-19T03:38:55.850Z,11.70
2019-03-19T03:43:59.390Z,10.97
2019-03-19T03:49:02.717Z,15.43
2019-03-19T03:54:06.259Z,9.63
2019-03-19T03:59:09.549Z,11.00
2019-03-19T04:04:13.086Z,15.13
2019-03-19T04:09:16.629Z,11.57
2019-03-19T04:14:20.165Z,8.20
2019-03-19T04:19:23.703Z,12.03
2019-03-19T04:24:27.015Z,10.17
2019-03-19T04:29:30.554Z,8.87
2019-03-19T04:34:33.841Z,9.73
2019-03-19T04:39:37.420Z,11.07
2019-03-19T04:44:40.956Z,12.47
2019-03-19T04:49:44.601Z,16.83
2019-03-19T04:54:48.146Z,10.37
2019-03-19T04:59:51.686Z,19.37
2019-03-19T05:04:55.015Z,16.77
2019-03-19T05:09:58.546Z,22.87
2019-03-19T05:15:01.874Z,15.00
2019-03-19T05:20:16.215Z,11.83
2019-03-19T05:25:19.744Z,17.47
2019-03-19T05:30:23.235Z,17.47
2019-03-19T05:35:26.527Z,15.43
2019-03-19T05:40:29.807Z,14.10
2019-03-19T05:45:33.205Z,16.10
2019-03-19T05:50:36.485Z,17.90
2019-03-19T05:55:39.776Z,15.23
2019-03-19T06:00:43.316Z,16.17
2019-03-19T06:05:46.608Z,16.53
2019-03-19T06:10:49.966Z,15.47
2019-03-19T06:15:53.514Z,16.33
2019-03-19T06:20:56.842Z,19.37
2019-03-19T06:26:00.159Z,18.67
2019-03-19T06:31:03.827Z,16.87
2019-03-19T06:36:07.138Z,17.70
2019-03-19T06:41:10.715Z,17.13
2019-03-19T06:46:14.024Z,16.80
2019-03-19T06:51:17.352Z,14.73
2019-03-19T06:56:20.625Z,19.40
2019-03-19T07:01:24.146Z,19.93
2019-03-19T07:06:27.666Z,15.87
2019-03-19T07:11:30.958Z,18.53
2019-03-19T07:16:34.487Z,19.10
2019-03-19T07:21:37.778Z,17.37
2019-03-19T07:26:41.060Z,16.57
2019-03-19T07:31:44.602Z,17.77
2019-03-19T07:36:47.899Z,17.50
2019-03-19T07:41:51.466Z,13.37
2019-03-19T07:46:55.006Z,16.23
2019-03-19T07:51:58.334Z,12.10
2019-03-19T07:57:01.652Z,13.53
2019-03-19T08:02:04.913Z,13.33
2019-03-19T08:07:08.490Z,13.30
2019-03-19T08:12:11.986Z,9.73
2019-03-19T08:17:15.278Z,15.37
2019-03-19T08:22:18.573Z,22.70
2019-03-19T08:27:22.104Z,10.80
2019-03-19T08:32:25.457Z,9.97
2019-03-19T08:37:28.990Z,15.77
2019-03-19T08:42:32.280Z,21.00
2019-03-19T08:47:35.811Z,11.83
2019-03-19T08:52:39.097Z,14.83
2019-03-19T08:57:42.639Z,12.23
2019-03-19T09:02:46.256Z,15.80
2019-03-19T09:07:49.548Z,13.37
2019-03-19T09:12:52.904Z,17.03
2019-03-19T09:17:56.188Z,16.60
2019-03-19T09:22:59.479Z,13.97
2019-03-19T09:28:03.015Z,13.13
2019-03-19T09:33:06.554Z,7.77
2019-03-19T09:38:10.082Z,9.87
2019-03-19T09:43:13.650Z,10.37
2019-03-19T09:48:16.982Z,6.93
2019-03-19T09:53:20.257Z,8.13
2019-03-19T09:58:23.588Z,8.40
2019-03-19T10:03:27.158Z,7.17
2019-03-19T10:08:30.446Z,6.90
2019-03-19T10:13:33.993Z,7.90
2019-03-19T10:18:37.598Z,6.70
2019-03-19T10:23:41.168Z,11.77
2019-03-19T10:28:44.523Z,13.97
2019-03-19T10:33:47.868Z,9.90
2019-03-19T10:38:51.156Z,6.60
2019-03-19T10:43:54.448Z,8.83
2019-03-19T10:48:57.984Z,6.77
2019-03-19T10:54:01.501Z,9.77
2019-03-19T10:59:05.103Z,11.00
2019-03-19T11:04:08.405Z,11.57
2019-03-19T11:09:11.691Z,16.37
2019-03-19T11:14:14.998Z,10.83
2019-03-19T11:19:18.278Z,11.93
2019-03-19T11:24:21.565Z,7.07
2019-03-19T11:29:24.866Z,8.93
2019-03-19T11:34:28.169Z,6.27
2019-03-19T11:39:31.486Z,11.47
2019-03-19T11:44:34.778Z,8.83
2019-03-19T11:49:38.071Z,6.77
2019-03-19T11:54:42.248Z,6.60
2019-03-19T11:59:46.106Z,8.40
2019-03-19T12:04:49.389Z,7.53
2019-03-19T12:09:52.922Z,7.30
2019-03-19T12:14:56.484Z,11.07
2019-03-19T12:19:59.806Z,9.07
2019-03-19T12:25:03.315Z,12.17
2019-03-19T12:30:22.032Z,8.90
2019-03-19T12:35:22.392Z,11.20
2019-03-19T12:40:36.368Z,6.67
2019-03-19T12:45:30.974Z,7.87
2019-03-19T12:50:34.333Z,9.00
2019-03-19T12:55:37.871Z,8.70
2019-03-19T13:00:41.304Z,17.27
2019-03-19T13:05:44.860Z,7.80
2019-03-19T13:10:48.410Z,8.87
2019-03-19T13:15:51.972Z,7.90
2019-03-19T13:20:55.508Z,9.70
2019-03-19T13:25:58.817Z,14.33
2019-03-19T13:31:02.351Z,8.77
2019-03-19T13:36:06.875Z,8.40
2019-03-19T13:41:10.416Z,9.17
2019-03-19T13:46:13.935Z,6.90
2019-03-19T13:51:17.487Z,5.27
2019-03-19T13:56:20.780Z,7.73
2019-03-19T14:01:24.060Z,9.10
2019-03-19T14:06:27.592Z,8.87
2019-03-19T14:11:30.876Z,7.70
2019-03-19T14:16:34.174Z,8.17
2019-03-19T14:21:37.898Z,7.93
2019-03-19T14:26:41.183Z,6.43
2019-03-19T14:31:44.718Z,9.10
2019-03-19T14:36:48.269Z,7.80
2019-03-19T14:41:51.863Z,8.50
2019-03-19T14:46:55.190Z,7.73
2019-03-19T14:51:58.739Z,8.13
2019-03-19T14:57:02.090Z,6.33
2019-03-19T15:02:05.627Z,6.73
2019-03-19T15:07:09.170Z,6.20
2019-03-19T15:12:12.468Z,4.97
2019-03-19T15:17:16.001Z,3.00
2019-03-19T15:22:19.539Z,5.43
2019-03-19T15:27:22.828Z,6.13
2019-03-19T15:32:26.366Z,3.07
2019-03-19T15:37:29.923Z,1.93
2019-03-19T15:42:33.196Z,2.67
2019-03-19T15:47:36.506Z,3.43
2019-03-19T15:52:40.036Z,3.20
2019-03-19T15:57:43.721Z,3.97
2019-03-19T16:02:47.265Z,4.80
2019-03-19T16:07:50.552Z,5.33
2019-03-19T16:12:53.828Z,7.30
2019-03-19T16:17:57.170Z,5.30
2019-03-19T16:23:00.460Z,6.97
2019-03-19T16:28:05.614Z,4.23
2019-03-19T16:33:09.153Z,5.73
2019-03-19T16:38:12.450Z,5.40
2019-03-19T16:43:15.983Z,6.50
2019-03-19T16:48:20.122Z,4.63
2019-03-19T16:53:23.759Z,7.53
2019-03-19T16:58:27.194Z,5.77
2019-03-19T17:03:30.490Z,5.87
2019-03-19T17:08:34.023Z,3.07
2019-03-19T17:13:37.570Z,3.63
2019-03-19T17:18:40.864Z,3.10
2019-03-19T17:23:44.394Z,2.13
2019-03-19T17:28:47.684Z,2.57
2019-03-19T17:33:51.223Z,2.90
2019-03-19T17:38:54.529Z,4.57
2019-03-19T17:43:58.050Z,3.20
2019-03-19T17:49:01.601Z,3.10
2019-03-19T17:54:05.212Z,6.23
2019-03-19T17:59:08.738Z,4.30
2019-03-19T18:04:12.308Z,5.03
2019-03-19T18:09:15.634Z,3.97
2019-03-19T18:14:18.908Z,3.90
2019-03-19T18:19:22.435Z,5.67
2019-03-19T18:24:26.090Z,4.47
2019-03-19T18:29:29.387Z,6.47
2019-03-19T18:34:32.927Z,6.37
2019-03-19T18:39:36.207Z,7.93
2019-03-19T18:44:39.786Z,7.93
2019-03-19T18:49:43.281Z,17.17
2019-03-19T18:54:46.857Z,28.30
2019-03-19T18:59:50.660Z,36.43
2019-03-19T19:04:54.005Z,31.47
2019-03-19T19:09:57.535Z,38.00
2019-03-19T19:15:00.989Z,31.80
2019-03-19T19:20:06.392Z,27.13
2019-03-19T19:25:16.844Z,31.93
2019-03-19T19:30:21.506Z,27.10
2019-03-19T19:35:25.061Z,17.70
2019-03-19T19:40:28.608Z,16.60
2019-03-19T19:45:31.917Z,17.77
2019-03-19T19:50:35.203Z,14.67
2019-03-19T19:55:38.795Z,20.97
2019-03-19T20:00:42.083Z,18.07
2019-03-19T20:05:45.369Z,19.63
2019-03-19T20:10:51.527Z,14.10
2019-03-19T20:15:55.107Z,21.90
2019-03-19T20:20:58.750Z,15.17
2019-03-19T20:26:02.979Z,12.80
2019-03-19T20:31:06.930Z,12.77
2019-03-19T20:36:10.460Z,8.83
2019-03-19T20:41:13.782Z,13.07
2019-03-19T20:46:17.088Z,14.10
2019-03-19T20:51:20.665Z,9.80
2019-03-19T20:56:23.957Z,15.20
2019-03-19T21:01:27.489Z,10.67
2019-03-19T21:06:31.023Z,10.23
2019-03-19T21:11:34.319Z,7.90
2019-03-19T21:16:37.619Z,9.00
2019-03-19T21:21:40.907Z,10.63
2019-03-19T21:26:44.458Z,9.93
2019-03-19T21:31:48.008Z,12.50
2019-03-19T21:36:51.290Z,38.73
2019-03-19T21:41:54.618Z,18.53
2019-03-19T21:46:58.145Z,11.87
2019-03-19T21:52:01.431Z,13.60
2019-03-19T21:57:04.748Z,14.93
2019-03-19T22:02:08.034Z,13.27
2019-03-19T22:07:11.323Z,13.00
2019-03-19T22:12:14.734Z,20.47
2019-03-19T22:17:18.056Z,13.60
2019-03-19T22:22:21.325Z,14.20
2019-03-19T22:27:24.638Z,13.73
2019-03-19T22:32:28.370Z,20.40
2019-03-19T22:37:31.912Z,16.87
2019-03-19T22:42:35.457Z,23.83
2019-03-19T22:47:38.764Z,33.00
2019-03-19T22:52:42.054Z,12.33
2019-03-19T22:57:45.339Z,16.17
2019-03-19T23:02:48.637Z,15.63
2019-03-19T23:07:58.131Z,13.40
2019-03-19T23:13:02.852Z,18.83
2019-03-19T23:18:12.510Z,14.73
2019-03-19T23:23:20.209Z,13.10
2019-03-19T23:28:23.728Z,19.67
2019-03-19T23:33:27.262Z,11.67
2019-03-19T23:38:30.796Z,14.13
2019-03-19T23:43:34.321Z,12.97
2019-03-19T23:48:43.521Z,13.80
2019-03-19T23:53:48.365Z,12.83
2019-03-19T23:59:06.904Z,18.73
